createdAt,value
2023-03-27T00:00:42.088Z,0.00
2023-03-27T00:01:42.111Z,0.00
2023-03-27T00:02:42.212Z,0.00
2023-03-27T00:03:42.088Z,0.00
2023-03-27T00:04:42.042Z,0.00
2023-03-27T00:05:42.019Z,0.00
2023-03-27T00:06:42.013Z,0.00
2023-03-27T00:07:42.028Z,0.00
2023-03-27T00:08:41.996Z,0.00
2023-03-27T00:09:41.986Z,0.00
2023-03-27T00:10:41.976Z,0.00
2023-03-27T00:11:41.970Z,0.00
2023-03-27T00:12:41.980Z,0.00
2023-03-27T00:13:49.417Z,0.00
2023-03-27T00:14:42.965Z,0.00
2023-03-27T00:15:41.927Z,0.00
2023-03-27T00:16:41.930Z,0.00
2023-03-27T00:17:41.981Z,0.00
2023-03-27T00:18:41.894Z,0.00
2023-03-27T00:19:41.896Z,0.00
2023-03-27T00:20:41.871Z,0.00
2023-03-27T00:21:41.851Z,0.00
2023-03-27T00:22:41.895Z,0.00
2023-03-27T00:23:41.841Z,0.00
2023-03-27T00:24:41.855Z,0.00
2023-03-27T00:25:41.812Z,0.00
2023-03-27T00:26:41.810Z,0.00
2023-03-27T00:27:41.810Z,0.00
2023-03-27T00:28:41.817Z,0.00
2023-03-27T00:29:41.778Z,0.00
2023-03-27T00:30:41.789Z,0.00
2023-03-27T00:31:41.753Z,0.00
2023-03-27T00:32:41.793Z,0.00
2023-03-27T00:33:41.781Z,0.00
2023-03-27T00:34:41.723Z,0.00
2023-03-27T00:35:41.767Z,0.00
2023-03-27T00:36:41.704Z,0.00
2023-03-27T00:37:41.688Z,0.00
2023-03-27T00:38:41.682Z,0.00
2023-03-27T00:39:41.714Z,0.00
2023-03-27T00:40:41.688Z,0.00
2023-03-27T00:41:41.642Z,0.00
2023-03-27T00:42:41.627Z,0.00
2023-03-27T00:43:41.655Z,0.00
2023-03-27T00:44:41.644Z,0.00
2023-03-27T00:45:41.630Z,0.00
2023-03-27T00:46:41.654Z,0.00
2023-03-27T00:47:41.632Z,0.00
2023-03-27T00:48:41.598Z,0.00
2023-03-27T00:49:41.643Z,0.00
2023-03-27T00:50:41.563Z,0.00
2023-03-27T00:51:41.577Z,0.00
2023-03-27T00:52:41.526Z,0.00
2023-03-27T00:53:41.549Z,0.00
2023-03-27T00:54:41.500Z,0.00
2023-03-27T00:55:41.498Z,0.00
2023-03-27T00:56:41.493Z,0.00
2023-03-27T00:57:41.507Z,0.00
2023-03-27T00:58:41.469Z,0.00
2023-03-27T00:59:41.451Z,0.00
2023-03-27T01:00:41.445Z,0.00
2023-03-27T01:01:41.510Z,0.00
2023-03-27T01:02:41.552Z,0.00
2023-03-27T01:03:41.556Z,0.00
2023-03-27T01:04:41.434Z,0.00
2023-03-27T01:05:41.405Z,0.00
2023-03-27T01:06:41.378Z,0.00
2023-03-27T01:07:41.369Z,0.00
2023-03-27T01:08:42.353Z,0.00
2023-03-27T01:09:41.348Z,0.00
2023-03-27T01:10:41.372Z,0.00
2023-03-27T01:11:41.322Z,0.00
2023-03-27T01:12:41.314Z,0.00
2023-03-27T01:13:41.307Z,0.00
2023-03-27T01:14:41.281Z,0.00
2023-03-27T01:15:41.305Z,0.00
2023-03-27T01:16:41.314Z,0.00
2023-03-27T01:17:41.313Z,0.00
2023-03-27T01:18:41.265Z,0.00
2023-03-27T01:19:41.231Z,0.00
2023-03-27T01:20:41.239Z,0.00
2023-03-27T01:21:41.236Z,0.00
2023-03-27T01:22:41.239Z,0.00
2023-03-27T01:23:59.354Z,0.00
2023-03-27T01:24:42.194Z,0.00
2023-03-27T01:25:41.202Z,0.00
2023-03-27T01:26:41.161Z,0.00
2023-03-27T01:27:41.144Z,0.00
2023-03-27T01:28:41.158Z,0.00
2023-03-27T01:29:41.123Z,0.00
2023-03-27T01:30:41.112Z,0.00
2023-03-27T01:31:41.149Z,0.00
2023-03-27T01:32:41.132Z,0.00
2023-03-27T01:33:41.118Z,0.00
2023-03-27T01:34:41.067Z,0.00
2023-03-27T01:35:41.086Z,0.00
2023-03-27T01:36:41.093Z,0.00
2023-03-27T01:37:41.058Z,0.00
2023-03-27T01:38:41.031Z,0.00
2023-03-27T01:39:41.027Z,0.00
2023-03-27T01:40:41.020Z,0.00
2023-03-27T01:41:41.013Z,0.00
2023-03-27T01:42:41.034Z,0.00
2023-03-27T01:43:40.989Z,0.00
2023-03-27T01:44:44.566Z,0.00
2023-03-27T01:45:40.965Z,0.00
2023-03-27T01:46:40.979Z,0.00
2023-03-27T01:47:41.009Z,0.00
2023-03-27T01:48:41.037Z,0.00
2023-03-27T01:49:40.935Z,0.00
2023-03-27T01:50:40.918Z,0.00
2023-03-27T01:51:40.892Z,0.00
2023-03-27T01:52:40.888Z,0.00
2023-03-27T01:53:41.067Z,0.00
2023-03-27T01:54:40.870Z,0.00
2023-03-27T01:55:40.859Z,0.00
2023-03-27T01:56:40.863Z,0.00
2023-03-27T01:57:48.938Z,0.00
2023-03-27T01:58:41.871Z,0.00
2023-03-27T01:59:40.820Z,0.00
2023-03-27T02:00:51.480Z,0.00
2023-03-27T02:01:41.820Z,0.00
2023-03-27T02:02:40.818Z,0.00
2023-03-27T02:03:40.768Z,0.00
2023-03-27T02:04:40.845Z,0.00
2023-03-27T02:05:40.756Z,0.00
2023-03-27T02:06:40.742Z,0.00
2023-03-27T02:07:40.732Z,0.00
2023-03-27T02:08:40.714Z,0.00
2023-03-27T02:09:40.724Z,0.00
2023-03-27T02:10:40.725Z,0.00
2023-03-27T02:11:40.695Z,0.00
2023-03-27T02:12:40.679Z,0.00
2023-03-27T02:13:40.661Z,0.00
2023-03-27T02:14:40.661Z,0.00
2023-03-27T02:15:40.671Z,0.00
2023-03-27T02:16:40.676Z,0.00
2023-03-27T02:17:40.650Z,0.00
2023-03-27T02:18:40.606Z,0.00
2023-03-27T02:19:40.599Z,0.00
2023-03-27T02:20:40.626Z,0.00
2023-03-27T02:21:40.580Z,0.00
2023-03-27T02:22:40.574Z,0.00
2023-03-27T02:23:40.564Z,0.00
2023-03-27T02:24:40.587Z,0.00
2023-03-27T02:25:40.573Z,0.00
2023-03-27T02:26:40.529Z,0.00
2023-03-27T02:27:40.516Z,0.00
2023-03-27T02:28:40.506Z,0.00
2023-03-27T02:29:40.497Z,0.00
2023-03-27T02:30:40.519Z,0.00
2023-03-27T02:31:40.486Z,0.00
2023-03-27T02:32:40.497Z,0.00
2023-03-27T02:33:40.455Z,0.00
2023-03-27T02:34:40.450Z,0.00
2023-03-27T02:35:40.485Z,0.00
2023-03-27T02:36:40.461Z,0.00
2023-03-27T02:37:40.412Z,0.00
2023-03-27T02:38:40.397Z,0.00
2023-03-27T02:39:40.398Z,0.00
2023-03-27T02:40:40.563Z,0.00
2023-03-27T02:41:40.402Z,0.00
2023-03-27T02:42:40.394Z,0.00
2023-03-27T02:43:40.356Z,0.00
2023-03-27T02:44:47.455Z,0.00
2023-03-27T02:45:41.359Z,0.00
2023-03-27T02:46:40.315Z,0.00
2023-03-27T02:47:40.359Z,0.00
2023-03-27T02:48:40.312Z,0.00
2023-03-27T02:49:40.291Z,0.00
2023-03-27T02:50:40.277Z,0.00
2023-03-27T02:51:40.287Z,0.00
2023-03-27T02:52:40.260Z,0.00
2023-03-27T02:53:40.300Z,0.00
2023-03-27T02:54:40.249Z,0.00
2023-03-27T02:55:40.233Z,0.00
2023-03-27T02:56:40.242Z,0.00
2023-03-27T02:57:40.262Z,0.00
2023-03-27T02:58:40.190Z,0.00
2023-03-27T02:59:40.219Z,0.00
2023-03-27T03:00:40.187Z,0.00
2023-03-27T03:01:40.229Z,0.00
2023-03-27T03:02:40.250Z,0.00
2023-03-27T03:03:40.191Z,0.00
2023-03-27T03:04:40.134Z,0.00
2023-03-27T03:05:40.114Z,0.00
2023-03-27T03:06:40.140Z,0.00
2023-03-27T03:07:40.141Z,0.00
2023-03-27T03:08:40.084Z,0.00
2023-03-27T03:09:40.607Z,0.00
2023-03-27T03:10:40.062Z,0.00
2023-03-27T03:11:40.102Z,0.00
2023-03-27T03:12:40.075Z,0.00
2023-03-27T03:13:40.055Z,0.00
2023-03-27T03:14:40.034Z,0.00
2023-03-27T03:15:40.021Z,0.00
2023-03-27T03:16:40.048Z,0.00
2023-03-27T03:17:40.085Z,0.00
2023-03-27T03:18:39.980Z,0.00
2023-03-27T03:19:39.999Z,0.00
2023-03-27T03:20:39.957Z,0.00
2023-03-27T03:21:39.943Z,0.00
2023-03-27T03:22:39.983Z,0.00
2023-03-27T03:23:39.920Z,0.00
2023-03-27T03:24:39.912Z,0.00
2023-03-27T03:25:39.928Z,0.00
2023-03-27T03:26:39.890Z,0.00
2023-03-27T03:27:39.882Z,0.00
2023-03-27T03:28:39.900Z,0.00
2023-03-27T03:29:40.885Z,0.00
2023-03-27T03:30:39.884Z,0.00
2023-03-27T03:31:39.846Z,0.00
2023-03-27T03:32:39.877Z,0.00
2023-03-27T03:33:39.817Z,0.00
2023-03-27T03:34:39.840Z,0.00
2023-03-27T03:35:39.831Z,0.00
2023-03-27T03:36:39.781Z,0.00
2023-03-27T03:37:39.775Z,0.00
2023-03-27T03:38:39.760Z,0.00
2023-03-27T03:39:39.759Z,0.00
2023-03-27T03:40:39.787Z,0.00
2023-03-27T03:41:39.744Z,0.00
2023-03-27T03:42:39.760Z,0.00
2023-03-27T03:43:39.715Z,0.00
2023-03-27T03:44:39.696Z,0.00
2023-03-27T03:45:39.761Z,0.00
2023-03-27T03:46:39.734Z,0.00
2023-03-27T03:47:39.704Z,0.00
2023-03-27T03:48:39.684Z,0.00
2023-03-27T03:49:39.669Z,0.00
2023-03-27T03:50:39.638Z,0.00
2023-03-27T03:51:39.630Z,0.00
2023-03-27T03:52:39.613Z,0.00
2023-03-27T03:53:39.649Z,0.00
2023-03-27T03:54:39.628Z,0.00
2023-03-27T03:55:39.605Z,0.00
2023-03-27T03:56:39.627Z,0.00
2023-03-27T03:57:39.555Z,0.00
2023-03-27T03:58:39.551Z,0.00
2023-03-27T03:59:39.540Z,0.00
2023-03-27T04:00:39.526Z,0.00
2023-03-27T04:01:39.581Z,0.00
2023-03-27T04:02:39.570Z,0.00
2023-03-27T04:03:39.651Z,0.00
2023-03-27T04:04:39.507Z,0.00
2023-03-27T04:05:39.507Z,0.00
2023-03-27T04:06:39.490Z,0.00
2023-03-27T04:07:39.443Z,0.00
2023-03-27T04:08:39.476Z,0.00
2023-03-27T04:09:39.426Z,0.00
2023-03-27T04:10:39.433Z,0.00
2023-03-27T04:11:39.437Z,0.00
2023-03-27T04:12:39.388Z,0.00
2023-03-27T04:13:39.382Z,0.00
2023-03-27T04:14:39.370Z,0.00
2023-03-27T04:15:39.400Z,0.00
2023-03-27T04:16:39.353Z,0.00
2023-03-27T04:17:39.467Z,0.00
2023-03-27T04:18:39.516Z,0.00
2023-03-27T04:19:39.322Z,0.00
2023-03-27T04:20:39.304Z,0.00
2023-03-27T04:21:39.296Z,0.00
2023-03-27T04:22:39.282Z,0.00
2023-03-27T04:23:39.317Z,0.00
2023-03-27T04:24:39.268Z,0.00
2023-03-27T04:25:39.326Z,0.00
2023-03-27T04:26:39.239Z,0.00
2023-03-27T04:27:39.278Z,4.00
2023-03-27T04:28:39.225Z,4.00
2023-03-27T04:29:39.212Z,4.00
2023-03-27T04:30:39.209Z,0.00
2023-03-27T04:31:39.254Z,4.00
2023-03-27T04:32:39.201Z,4.00
2023-03-27T04:33:39.262Z,4.00
2023-03-27T04:34:39.159Z,8.00
2023-03-27T04:35:39.207Z,8.00
2023-03-27T04:36:39.143Z,8.00
2023-03-27T04:37:39.141Z,8.00
2023-03-27T04:38:39.195Z,12.00
2023-03-27T04:39:39.160Z,12.00
2023-03-27T04:40:39.102Z,16.00
2023-03-27T04:41:39.107Z,20.00
2023-03-27T04:42:39.086Z,20.00
2023-03-27T04:43:39.070Z,24.00
2023-03-27T04:44:39.096Z,28.00
2023-03-27T04:45:39.046Z,28.00
2023-03-27T04:46:39.116Z,36.00
2023-03-27T04:47:39.162Z,40.00
2023-03-27T04:48:39.417Z,44.00
2023-03-27T04:49:39.069Z,48.00
2023-03-27T04:50:39.023Z,56.00
2023-03-27T04:51:38.987Z,60.00
2023-03-27T04:52:38.973Z,68.00
2023-03-27T04:53:39.000Z,68.00
2023-03-27T04:54:38.948Z,80.00
2023-03-27T04:55:38.983Z,88.00
2023-03-27T04:56:38.963Z,92.00
2023-03-27T04:57:38.923Z,96.00
2023-03-27T04:58:38.912Z,100.00
2023-03-27T04:59:38.899Z,112.00
2023-03-27T05:00:38.914Z,120.00
2023-03-27T05:01:39.060Z,132.00
2023-03-27T05:02:38.924Z,144.00
2023-03-27T05:03:38.953Z,156.00
2023-03-27T05:04:38.863Z,168.00
2023-03-27T05:05:38.860Z,180.00
2023-03-27T05:06:40.559Z,192.00
2023-03-27T05:07:38.815Z,204.00
2023-03-27T05:08:38.805Z,220.00
2023-03-27T05:09:38.794Z,236.00
2023-03-27T05:10:38.778Z,256.00
2023-03-27T05:11:38.804Z,268.00
2023-03-27T05:12:38.780Z,272.00
2023-03-27T05:13:38.742Z,280.00
2023-03-27T05:14:38.732Z,292.00
2023-03-27T05:15:38.733Z,308.00
2023-03-27T05:16:38.740Z,328.00
2023-03-27T05:17:38.759Z,344.00
2023-03-27T05:18:41.975Z,360.00
2023-03-27T05:19:38.680Z,380.00
2023-03-27T05:20:38.705Z,400.00
2023-03-27T05:21:38.682Z,432.00
2023-03-27T05:22:38.683Z,460.00
2023-03-27T05:23:38.640Z,484.00
2023-03-27T05:24:38.631Z,492.00
2023-03-27T05:25:38.614Z,488.00
2023-03-27T05:26:38.706Z,508.00
2023-03-27T05:27:38.869Z,532.00
2023-03-27T05:28:38.609Z,556.00
2023-03-27T05:29:46.858Z,568.00
2023-03-27T05:30:39.619Z,584.00
2023-03-27T05:31:38.553Z,608.00
2023-03-27T05:32:38.562Z,624.00
2023-03-27T05:33:38.566Z,640.00
2023-03-27T05:34:38.527Z,652.00
2023-03-27T05:35:38.517Z,664.00
2023-03-27T05:36:38.504Z,688.00
2023-03-27T05:37:38.533Z,704.00
2023-03-27T05:38:38.524Z,716.00
2023-03-27T05:39:38.469Z,732.00
2023-03-27T05:40:38.454Z,740.00
2023-03-27T05:41:38.450Z,756.00
2023-03-27T05:42:38.434Z,768.00
2023-03-27T05:43:38.462Z,780.00
2023-03-27T05:44:38.451Z,788.00
2023-03-27T05:45:38.420Z,812.00
2023-03-27T05:46:38.454Z,840.00
2023-03-27T05:47:38.410Z,856.00
2023-03-27T05:48:38.421Z,872.00
2023-03-27T05:49:38.363Z,884.00
2023-03-27T05:50:38.361Z,876.00
2023-03-27T05:51:38.336Z,880.00
2023-03-27T05:52:39.344Z,916.00
2023-03-27T05:53:38.382Z,928.00
2023-03-27T05:54:38.340Z,948.00
2023-03-27T05:55:38.313Z,952.00
2023-03-27T05:56:38.326Z,972.00
2023-03-27T05:57:38.284Z,988.00
2023-03-27T05:58:38.269Z,1004.00
2023-03-27T05:59:38.314Z,1040.00
2023-03-27T06:00:38.283Z,1188.00
2023-03-27T06:01:38.229Z,1432.00
2023-03-27T06:02:38.251Z,1360.00
2023-03-27T06:03:38.508Z,1176.00
2023-03-27T06:04:38.249Z,1148.00
2023-03-27T06:05:38.195Z,1124.00
2023-03-27T06:06:38.215Z,1108.00
2023-03-27T06:07:38.596Z,1108.00
2023-03-27T06:08:38.172Z,1116.00
2023-03-27T06:09:38.177Z,1124.00
2023-03-27T06:10:38.143Z,1128.00
2023-03-27T06:11:38.157Z,1140.00
2023-03-27T06:12:38.142Z,1148.00
2023-03-27T06:13:38.110Z,1156.00
2023-03-27T06:14:38.106Z,1172.00
2023-03-27T06:15:38.127Z,1192.00
2023-03-27T06:16:38.104Z,1204.00
2023-03-27T06:17:38.145Z,1220.00
2023-03-27T06:18:38.074Z,1240.00
2023-03-27T06:19:38.042Z,1260.00
2023-03-27T06:20:38.038Z,1276.00
2023-03-27T06:21:39.421Z,1300.00
2023-03-27T06:22:38.019Z,1340.00
2023-03-27T06:23:38.029Z,1368.00
2023-03-27T06:24:38.039Z,1412.00
2023-03-27T06:25:38.011Z,1432.00
2023-03-27T06:26:38.019Z,1464.00
2023-03-27T06:27:38.046Z,1500.00
2023-03-27T06:28:37.979Z,1528.00
2023-03-27T06:29:37.931Z,1560.00
2023-03-27T06:30:37.929Z,1596.00
2023-03-27T06:31:37.930Z,1624.00
2023-03-27T06:32:37.915Z,1676.00
2023-03-27T06:33:37.921Z,1728.00
2023-03-27T06:34:37.924Z,1800.00
2023-03-27T06:35:37.932Z,1940.00
2023-03-27T06:36:37.866Z,2480.00
2023-03-27T06:37:37.847Z,3492.00
2023-03-27T06:38:37.875Z,4304.00
2023-03-27T06:39:37.834Z,4760.00
2023-03-27T06:40:37.819Z,4416.00
2023-03-27T06:41:37.823Z,4648.00
2023-03-27T06:42:37.797Z,4772.00
2023-03-27T06:43:37.779Z,4428.00
2023-03-27T06:44:37.803Z,4052.00
2023-03-27T06:45:37.776Z,4152.00
2023-03-27T06:46:45.052Z,5212.00
2023-03-27T06:47:48.129Z,4588.00
2023-03-27T06:48:38.748Z,3412.00
2023-03-27T06:49:37.748Z,3596.00
2023-03-27T06:50:37.712Z,3228.00
2023-03-27T06:51:37.702Z,3076.00
2023-03-27T06:52:37.695Z,3748.00
2023-03-27T06:53:38.324Z,2896.00
2023-03-27T06:54:37.723Z,3144.00
2023-03-27T06:55:37.657Z,2360.00
2023-03-27T06:56:37.696Z,2724.00
2023-03-27T06:57:37.653Z,3012.00
2023-03-27T06:58:37.626Z,3908.00
2023-03-27T06:59:37.768Z,4400.00
2023-03-27T07:00:37.633Z,4672.00
2023-03-27T07:01:37.617Z,4388.00
2023-03-27T07:02:37.634Z,4304.00
2023-03-27T07:03:37.571Z,3952.00
2023-03-27T07:04:37.563Z,3824.00
2023-03-27T07:05:37.684Z,4996.00
2023-03-27T07:06:39.644Z,4680.00
2023-03-27T07:07:40.347Z,4580.00
2023-03-27T07:08:37.512Z,4520.00
2023-03-27T07:09:39.938Z,3352.00
2023-03-27T07:10:37.887Z,3492.00
2023-03-27T07:11:37.746Z,4056.00
2023-03-27T07:12:37.550Z,2356.00
2023-03-27T07:13:37.628Z,2680.00
2023-03-27T07:14:37.625Z,2412.00
2023-03-27T07:15:37.548Z,3920.00
2023-03-27T07:16:37.473Z,3408.00
2023-03-27T07:17:48.217Z,2244.00
2023-03-27T07:18:38.408Z,3404.00
2023-03-27T07:19:37.396Z,2444.00
2023-03-27T07:20:37.394Z,3900.00
2023-03-27T07:21:37.400Z,3404.00
2023-03-27T07:22:37.362Z,3008.00
2023-03-27T07:23:37.461Z,3296.00
2023-03-27T07:24:37.345Z,4028.00
2023-03-27T07:25:37.338Z,4248.00
2023-03-27T07:26:37.365Z,4464.00
2023-03-27T07:27:37.312Z,4252.00
2023-03-27T07:28:37.294Z,4792.00
2023-03-27T07:29:37.349Z,5792.00
2023-03-27T07:30:37.282Z,4440.00
2023-03-27T07:32:38.092Z,3112.00
2023-03-27T07:33:37.313Z,4364.00
2023-03-27T07:34:37.234Z,4220.00
2023-03-27T07:35:37.255Z,4688.00
2023-03-27T07:36:37.212Z,5428.00
2023-03-27T07:37:38.141Z,5552.00
2023-03-27T07:38:37.193Z,3472.00
2023-03-27T07:39:37.189Z,3224.00
2023-03-27T07:40:40.015Z,5072.00
2023-03-27T07:41:37.172Z,5184.00
2023-03-27T07:42:37.180Z,5796.00
2023-03-27T07:43:37.181Z,4932.00
2023-03-27T07:44:37.229Z,7556.00
2023-03-27T07:45:37.173Z,5320.00
2023-03-27T07:46:37.111Z,6080.00
2023-03-27T07:47:37.158Z,8548.00
2023-03-27T07:48:37.127Z,8012.00
2023-03-27T07:49:39.228Z,9652.00
2023-03-27T07:50:37.067Z,7824.00
2023-03-27T07:51:37.059Z,3820.00
2023-03-27T07:52:37.048Z,2880.00
2023-03-27T07:53:37.074Z,3092.00
2023-03-27T07:54:37.055Z,5368.00
2023-03-27T07:55:37.009Z,8572.00
2023-03-27T07:56:37.026Z,7900.00
2023-03-27T07:57:46.033Z,8728.00
2023-03-27T07:58:38.091Z,8936.00
2023-03-27T07:59:37.147Z,8828.00
2023-03-27T08:00:36.984Z,4476.00
2023-03-27T08:01:36.974Z,2172.00
2023-03-27T08:02:36.944Z,2616.00
2023-03-27T08:03:37.079Z,3052.00
2023-03-27T08:04:37.088Z,2152.00
2023-03-27T08:05:36.901Z,2044.00
2023-03-27T08:06:36.913Z,2756.00
2023-03-27T08:07:36.892Z,2812.00
2023-03-27T08:08:36.877Z,2804.00
2023-03-27T08:09:36.858Z,3452.00
2023-03-27T08:10:36.885Z,4796.00
2023-03-27T08:11:36.836Z,4636.00
2023-03-27T08:12:36.832Z,4020.00
2023-03-27T08:13:36.897Z,4000.00
2023-03-27T08:14:36.801Z,5300.00
2023-03-27T08:15:36.802Z,4352.00
2023-03-27T08:16:45.449Z,6584.00
2023-03-27T08:17:36.976Z,10776.00
2023-03-27T08:18:36.762Z,4600.00
2023-03-27T08:19:36.755Z,3436.00
2023-03-27T08:20:36.758Z,3540.00
2023-03-27T08:21:36.724Z,5508.00
2023-03-27T08:22:36.719Z,7460.00
2023-03-27T08:23:36.700Z,10148.00
2023-03-27T08:24:36.708Z,7660.00
2023-03-27T08:25:36.684Z,7556.00
2023-03-27T08:26:36.717Z,7564.00
2023-03-27T08:27:36.696Z,8480.00
2023-03-27T08:28:36.662Z,8444.00
2023-03-27T08:29:36.639Z,11016.00
2023-03-27T08:30:36.671Z,14024.00
2023-03-27T08:31:36.657Z,14816.00
2023-03-27T08:32:36.641Z,9336.00
2023-03-27T08:33:36.614Z,10272.00
2023-03-27T08:34:36.588Z,9536.00
2023-03-27T08:35:36.781Z,7564.00
2023-03-27T08:36:36.585Z,6552.00
2023-03-27T08:37:36.556Z,3844.00
2023-03-27T08:38:36.537Z,3092.00
2023-03-27T08:39:36.544Z,3916.00
2023-03-27T08:40:36.567Z,7140.00
2023-03-27T08:41:36.520Z,7292.00
2023-03-27T08:42:36.511Z,4756.00
2023-03-27T08:43:36.508Z,3604.00
2023-03-27T08:44:36.488Z,3104.00
2023-03-27T08:45:36.473Z,2924.00
2023-03-27T08:46:36.506Z,5436.00
2023-03-27T08:47:36.508Z,9152.00
2023-03-27T08:48:36.464Z,11760.00
2023-03-27T08:49:36.430Z,6152.00
2023-03-27T08:50:36.430Z,4368.00
2023-03-27T08:51:36.407Z,3264.00
2023-03-27T08:52:36.490Z,3604.00
2023-03-27T08:53:37.368Z,4580.00
2023-03-27T08:54:36.397Z,6416.00
2023-03-27T08:55:36.366Z,7420.00
2023-03-27T08:56:36.381Z,6880.00
2023-03-27T08:57:36.365Z,5396.00
2023-03-27T08:58:36.447Z,4040.00
2023-03-27T08:59:36.315Z,3476.00
2023-03-27T09:00:36.314Z,4912.00
2023-03-27T09:01:36.362Z,7900.00
2023-03-27T09:02:36.374Z,56960.00
2023-03-27T09:03:36.464Z,10232.00
2023-03-27T09:04:37.670Z,5664.00
2023-03-27T09:05:36.251Z,6420.00
2023-03-27T09:06:36.256Z,6220.00
2023-03-27T09:07:36.227Z,3984.00
2023-03-27T09:08:36.224Z,3416.00
2023-03-27T09:09:36.245Z,5560.00
2023-03-27T09:10:36.223Z,5964.00
2023-03-27T09:11:36.188Z,6968.00
2023-03-27T09:12:36.186Z,74144.00
2023-03-27T09:13:36.166Z,73504.00
2023-03-27T09:14:36.192Z,54048.00
2023-03-27T09:15:36.141Z,32320.00
2023-03-27T09:16:36.238Z,53184.00
2023-03-27T09:17:36.172Z,48128.00
2023-03-27T09:18:36.951Z,6496.00
2023-03-27T09:19:36.106Z,4524.00
2023-03-27T09:20:36.145Z,70624.00
2023-03-27T09:21:36.113Z,51200.00
2023-03-27T09:22:36.063Z,71328.00
2023-03-27T09:23:36.059Z,71520.00
2023-03-27T09:24:36.044Z,72480.00
2023-03-27T09:25:36.042Z,76064.00
2023-03-27T09:26:36.118Z,73728.00
2023-03-27T09:27:36.025Z,6364.00
2023-03-27T09:28:36.023Z,77696.00
2023-03-27T09:29:36.038Z,79200.00
2023-03-27T09:30:35.984Z,80000.00
2023-03-27T09:31:36.033Z,76288.00
2023-03-27T09:32:35.991Z,40160.00
2023-03-27T09:33:35.947Z,67296.00
2023-03-27T09:34:35.976Z,9164.00
2023-03-27T09:35:35.939Z,73184.00
2023-03-27T09:36:35.950Z,71488.00
2023-03-27T09:37:37.055Z,71328.00
2023-03-27T09:38:35.934Z,72800.00
2023-03-27T09:39:35.898Z,74848.00
2023-03-27T09:40:35.890Z,78816.00
2023-03-27T09:41:35.879Z,80512.00
2023-03-27T09:42:35.899Z,83232.00
2023-03-27T09:43:35.854Z,82048.00
2023-03-27T09:44:35.835Z,82208.00
2023-03-27T09:45:35.835Z,11524.00
2023-03-27T09:46:35.886Z,8400.00
2023-03-27T09:47:35.850Z,83616.00
2023-03-27T09:48:35.839Z,18464.00
2023-03-27T09:49:35.813Z,87168.00
2023-03-27T09:50:35.822Z,26624.00
2023-03-27T09:51:35.779Z,83040.00
2023-03-27T09:52:35.779Z,84800.00
2023-03-27T09:53:35.769Z,87104.00
2023-03-27T09:54:35.782Z,25152.00
2023-03-27T09:55:35.737Z,56416.00
2023-03-27T09:56:35.765Z,87872.00
2023-03-27T09:57:35.727Z,11280.00
2023-03-27T09:58:35.717Z,8828.00
2023-03-27T09:59:35.719Z,6536.00
2023-03-27T10:00:35.774Z,3868.00
2023-03-27T10:01:35.945Z,2648.00
2023-03-27T10:02:35.689Z,2852.00
2023-03-27T10:03:35.701Z,2896.00
2023-03-27T10:04:35.683Z,2220.00
2023-03-27T10:05:35.647Z,1924.00
2023-03-27T10:06:35.617Z,2852.00
2023-03-27T10:07:35.614Z,5232.00
2023-03-27T10:08:35.613Z,6964.00
2023-03-27T10:09:35.597Z,37856.00
2023-03-27T10:10:35.605Z,75648.00
2023-03-27T10:11:35.576Z,88512.00
2023-03-27T10:12:35.554Z,86848.00
2023-03-27T10:13:35.592Z,84032.00
2023-03-27T10:14:35.546Z,67968.00
2023-03-27T10:15:35.558Z,7676.00
2023-03-27T10:16:35.538Z,12072.00
2023-03-27T10:17:35.593Z,75008.00
2023-03-27T10:18:35.491Z,73152.00
2023-03-27T10:19:35.499Z,8504.00
2023-03-27T10:20:35.485Z,7844.00
2023-03-27T10:21:35.456Z,4300.00
2023-03-27T10:22:35.507Z,3580.00
2023-03-27T10:23:35.470Z,4312.00
2023-03-27T10:24:35.445Z,5604.00
2023-03-27T10:25:35.415Z,5020.00
2023-03-27T10:26:35.413Z,6312.00
2023-03-27T10:27:35.432Z,10652.00
2023-03-27T10:28:35.386Z,10376.00
2023-03-27T10:29:35.368Z,24192.00
2023-03-27T10:30:35.364Z,21408.00
2023-03-27T10:31:35.407Z,14780.00
2023-03-27T10:32:35.369Z,8116.00
2023-03-27T10:33:35.334Z,17184.00
2023-03-27T10:34:35.319Z,15628.00
2023-03-27T10:35:36.713Z,14316.00
2023-03-27T10:36:35.343Z,6552.00
2023-03-27T10:37:35.291Z,15284.00
2023-03-27T10:38:35.304Z,6628.00
2023-03-27T10:39:35.312Z,6100.00
2023-03-27T10:40:35.277Z,7260.00
2023-03-27T10:41:35.237Z,5632.00
2023-03-27T10:42:35.234Z,4008.00
2023-03-27T10:43:35.234Z,3080.00
2023-03-27T10:44:35.252Z,2488.00
2023-03-27T10:45:35.233Z,2264.00
2023-03-27T10:46:35.262Z,2684.00
2023-03-27T10:47:35.242Z,4852.00
2023-03-27T10:48:35.166Z,13052.00
2023-03-27T10:49:35.159Z,10800.00
2023-03-27T10:50:35.177Z,7888.00
2023-03-27T10:51:45.422Z,6676.00
2023-03-27T10:52:36.128Z,6968.00
2023-03-27T10:53:35.315Z,6820.00
2023-03-27T10:54:35.158Z,5668.00
2023-03-27T10:55:35.126Z,5188.00
2023-03-27T10:56:35.119Z,6740.00
2023-03-27T10:57:35.083Z,7056.00
2023-03-27T10:58:35.068Z,7492.00
2023-03-27T10:59:41.425Z,6592.00
2023-03-27T11:00:36.556Z,5312.00
2023-03-27T11:01:35.042Z,4680.00
2023-03-27T11:02:35.129Z,4584.00
2023-03-27T11:03:35.057Z,5264.00
2023-03-27T11:04:35.026Z,6504.00
2023-03-27T11:05:35.082Z,4996.00
2023-03-27T11:06:34.982Z,3440.00
2023-03-27T11:07:34.963Z,2464.00
2023-03-27T11:08:34.981Z,4100.00
2023-03-27T11:09:34.929Z,5068.00
2023-03-27T11:10:34.954Z,5388.00
2023-03-27T11:11:34.917Z,4148.00
2023-03-27T11:12:34.947Z,3344.00
2023-03-27T11:13:34.975Z,5540.00
2023-03-27T11:14:34.880Z,7976.00
2023-03-27T11:15:34.903Z,4244.00
2023-03-27T11:16:34.920Z,7908.00
2023-03-27T11:17:34.905Z,7988.00
2023-03-27T11:18:34.838Z,5132.00
2023-03-27T11:19:34.860Z,7700.00
2023-03-27T11:20:34.852Z,4064.00
2023-03-27T11:21:34.805Z,8968.00
2023-03-27T11:22:34.795Z,9752.00
2023-03-27T11:23:34.793Z,5584.00
2023-03-27T11:24:34.766Z,8500.00
2023-03-27T11:25:34.758Z,5556.00
2023-03-27T11:26:34.778Z,6980.00
2023-03-27T11:27:34.742Z,8180.00
2023-03-27T11:28:34.792Z,5452.00
2023-03-27T11:29:34.718Z,4800.00
2023-03-27T11:30:34.709Z,5888.00
2023-03-27T11:31:34.766Z,9404.00
2023-03-27T11:32:34.706Z,8796.00
2023-03-27T11:33:34.670Z,10272.00
2023-03-27T11:34:34.724Z,7368.00
2023-03-27T11:35:34.703Z,10660.00
2023-03-27T11:36:34.689Z,10048.00
2023-03-27T11:37:34.659Z,8024.00
2023-03-27T11:38:34.643Z,7752.00
2023-03-27T11:39:34.612Z,9068.00
2023-03-27T11:40:34.607Z,7952.00
2023-03-27T11:41:34.623Z,8324.00
2023-03-27T11:42:34.624Z,10476.00
2023-03-27T11:43:34.590Z,10228.00
2023-03-27T11:44:34.585Z,10080.00
2023-03-27T11:45:34.553Z,11444.00
2023-03-27T11:46:34.614Z,11072.00
2023-03-27T11:47:34.664Z,11124.00
2023-03-27T11:48:34.541Z,10128.00
2023-03-27T11:49:34.524Z,10952.00
2023-03-27T11:50:34.535Z,10716.00
2023-03-27T11:51:34.492Z,10932.00
2023-03-27T11:52:34.471Z,11132.00
2023-03-27T11:53:34.507Z,10496.00
2023-03-27T11:54:34.458Z,10980.00
2023-03-27T11:55:34.464Z,11332.00
2023-03-27T11:56:34.456Z,9092.00
2023-03-27T11:57:34.424Z,10108.00
2023-03-27T11:58:34.413Z,7280.00
2023-03-27T11:59:34.388Z,8688.00
2023-03-27T12:00:34.416Z,7500.00
2023-03-27T12:01:34.415Z,6732.00
2023-03-27T12:02:34.521Z,3944.00
2023-03-27T12:03:34.436Z,3248.00
2023-03-27T12:04:34.362Z,2512.00
2023-03-27T12:05:34.326Z,2244.00
2023-03-27T12:06:34.332Z,2200.00
2023-03-27T12:07:37.087Z,2024.00
2023-03-27T12:08:34.310Z,1768.00
2023-03-27T12:09:34.290Z,1468.00
2023-03-27T12:10:34.457Z,1188.00
2023-03-27T12:11:34.278Z,1044.00
2023-03-27T12:12:34.255Z,1072.00
2023-03-27T12:13:41.261Z,1300.00
2023-03-27T12:14:40.799Z,1884.00
2023-03-27T12:15:35.229Z,2152.00
2023-03-27T12:16:34.237Z,2092.00
2023-03-27T12:17:34.303Z,2856.00
2023-03-27T12:18:36.448Z,4048.00
2023-03-27T12:19:38.592Z,4292.00
2023-03-27T12:20:34.170Z,4732.00
2023-03-27T12:21:34.147Z,5964.00
2023-03-27T12:22:34.143Z,6316.00
2023-03-27T12:23:34.196Z,5748.00
2023-03-27T12:24:36.027Z,5292.00
2023-03-27T12:25:40.903Z,5028.00
2023-03-27T12:26:36.995Z,4916.00
2023-03-27T12:27:34.098Z,4860.00
2023-03-27T12:28:34.078Z,4880.00
2023-03-27T12:29:34.101Z,4820.00
2023-03-27T12:30:34.086Z,4760.00
2023-03-27T12:31:34.556Z,4768.00
2023-03-27T12:32:34.070Z,4752.00